createdAt,value
2018-01-22T00:00:08.000Z,14.73
2018-01-22T00:02:35.579Z,9.93
2018-01-22T00:05:03.930Z,11.93
2018-01-22T00:07:31.473Z,9.20
2018-01-22T00:09:59.001Z,9.70
2018-01-22T00:12:26.549Z,9.50
2018-01-22T00:14:54.076Z,9.30
2018-01-22T00:17:21.626Z,11.27
2018-01-22T00:19:49.153Z,11.13
2018-01-22T00:22:16.706Z,12.67
2018-01-22T00:24:44.226Z,9.50
2018-01-22T00:27:12.550Z,9.47
2018-01-22T00:29:40.078Z,9.07
2018-01-22T00:32:07.610Z,9.77
2018-01-22T00:34:35.165Z,10.77
2018-01-22T00:37:02.697Z,11.03
2018-01-22T00:39:30.246Z,9.43
2018-01-22T00:41:57.770Z,9.17
2018-01-22T00:44:25.311Z,7.87
2018-01-22T00:46:53.606Z,9.83
2018-01-22T00:49:21.191Z,10.23
2018-01-22T00:51:48.722Z,9.67
2018-01-22T00:54:17.033Z,10.60
2018-01-22T00:56:44.557Z,9.53
2018-01-22T00:59:12.866Z,11.60
2018-01-22T01:01:40.395Z,9.57
2018-01-22T01:04:08.708Z,8.33
2018-01-22T01:06:36.238Z,13.00
2018-01-22T01:09:03.782Z,12.23
2018-01-22T01:11:32.178Z,10.23
2018-01-22T01:13:59.725Z,9.57
2018-01-22T01:16:28.018Z,10.97
2018-01-22T01:18:55.570Z,10.73
2018-01-22T01:21:23.858Z,16.13
2018-01-22T01:23:51.383Z,17.70
2018-01-22T01:26:18.945Z,159.20
2018-01-22T01:28:46.475Z,81.30
2018-01-22T01:31:14.033Z,267.60
2018-01-22T01:33:41.553Z,22.80
2018-01-22T01:36:09.114Z,17.70
2018-01-22T01:38:36.650Z,41.47
2018-01-22T01:41:04.978Z,126.07
2018-01-22T01:43:32.506Z,73.27
2018-01-22T01:46:00.050Z,9.03
2018-01-22T01:48:28.374Z,16.33
2018-01-22T01:50:55.925Z,7.77
2018-01-22T01:53:23.463Z,9.40
2018-01-22T01:55:51.026Z,8.10
2018-01-22T01:58:18.558Z,13.17
2018-01-22T02:00:46.117Z,9.20
2018-01-22T02:03:13.637Z,11.17
2018-01-22T02:05:41.258Z,9.17
2018-01-22T02:08:09.556Z,20.87
2018-01-22T02:10:37.117Z,93.83
2018-01-22T02:13:04.681Z,167.17
2018-01-22T02:15:32.243Z,11.63
2018-01-22T02:17:59.773Z,70.17
2018-01-22T02:20:28.094Z,40.17
2018-01-22T02:22:56.387Z,10.60
2018-01-22T02:25:23.931Z,9.43
2018-01-22T02:27:51.475Z,11.97
2018-01-22T02:30:19.006Z,79.20
2018-01-22T02:32:47.333Z,27.70
2018-01-22T02:35:14.862Z,17.70
2018-01-22T02:37:42.413Z,12.90
2018-01-22T02:40:10.082Z,10.63
2018-01-22T02:42:37.678Z,9.93
2018-01-22T02:45:05.197Z,7.63
2018-01-22T02:47:32.853Z,12.70
2018-01-22T02:50:00.392Z,9.40
2018-01-22T02:52:28.713Z,7.60
2018-01-22T02:54:56.237Z,8.80
2018-01-22T02:57:24.554Z,12.10
2018-01-22T02:59:52.069Z,9.20
2018-01-22T03:02:20.386Z,21.77
2018-01-22T03:04:47.913Z,9.20
2018-01-22T03:07:16.239Z,8.77
2018-01-22T03:09:43.840Z,9.40
2018-01-22T03:12:11.447Z,10.50
2018-01-22T03:14:38.982Z,7.63
2018-01-22T03:17:06.534Z,9.23
2018-01-22T03:19:34.857Z,6.63
2018-01-22T03:22:02.422Z,8.50
2018-01-22T03:24:29.950Z,6.20
2018-01-22T03:26:57.474Z,7.57
2018-01-22T03:29:25.027Z,5.93
2018-01-22T03:31:52.661Z,25.23
2018-01-22T03:34:20.222Z,201.83
2018-01-22T03:36:48.530Z,115.13
2018-01-22T03:39:16.095Z,272.77
2018-01-22T03:41:44.394Z,35.97
2018-01-22T03:44:11.951Z,44.30
2018-01-22T03:46:39.487Z,82.43
2018-01-22T03:49:07.033Z,41.13
2018-01-22T03:51:34.570Z,23.53
2018-01-22T03:54:02.117Z,16.23
2018-01-22T03:56:29.645Z,10.83
2018-01-22T03:58:57.962Z,24.97
2018-01-22T04:01:25.489Z,45.20
2018-01-22T04:03:53.042Z,26.13
2018-01-22T04:06:20.574Z,19.43
2018-01-22T04:08:48.127Z,66.03
2018-01-22T04:11:15.654Z,179.60
2018-01-22T04:13:43.206Z,80.47
2018-01-22T04:16:10.738Z,91.77
2018-01-22T04:18:39.054Z,43.13
2018-01-22T04:21:06.575Z,35.67
2018-01-22T04:23:34.891Z,51.17
2018-01-22T04:26:02.428Z,57.83
2018-01-22T04:28:29.950Z,73.27
2018-01-22T04:30:57.531Z,78.57
2018-01-22T04:33:25.822Z,68.67
2018-01-22T04:35:53.373Z,106.17
2018-01-22T04:38:21.677Z,121.63
2018-01-22T04:40:49.237Z,243.57
2018-01-22T04:43:16.766Z,188.10
2018-01-22T04:45:45.086Z,229.57
2018-01-22T04:48:12.613Z,301.77
2018-01-22T04:50:40.170Z,181.00
2018-01-22T04:53:07.705Z,156.83
2018-01-22T04:55:35.261Z,59.60
2018-01-22T04:58:02.798Z,122.67
2018-01-22T05:00:30.350Z,50.27
2018-01-22T05:02:57.878Z,40.17
2018-01-22T05:05:25.426Z,77.67
2018-01-22T05:07:52.966Z,169.97
2018-01-22T05:10:20.523Z,31.80
2018-01-22T05:12:48.830Z,30.93
2018-01-22T05:15:16.388Z,40.13
2018-01-22T05:20:47.649Z,62.63
2018-01-22T05:23:15.942Z,28.20
2018-01-22T05:25:43.494Z,12.57
2018-01-22T05:28:11.025Z,13.70
2018-01-22T05:30:38.578Z,8.77
2018-01-22T05:33:06.130Z,13.20
2018-01-22T05:35:33.676Z,7.47
2018-01-22T05:38:01.218Z,6.60
2018-01-22T05:40:28.798Z,7.40
2018-01-22T05:42:56.324Z,6.30
2018-01-22T05:45:23.869Z,13.47
2018-01-22T05:47:51.413Z,10.40
2018-01-22T05:50:19.705Z,12.90
2018-01-22T05:52:47.253Z,9.03
2018-01-22T05:55:15.549Z,13.67
2018-01-22T05:57:43.106Z,12.30
2018-01-22T06:00:10.673Z,15.10
2018-01-22T06:02:38.234Z,14.40
2018-01-22T06:05:05.765Z,19.47
2018-01-22T06:07:34.090Z,16.40
2018-01-22T06:10:01.614Z,12.13
2018-01-22T06:12:29.157Z,17.87
2018-01-22T06:14:57.454Z,17.97
2018-01-22T06:17:25.002Z,17.03
2018-01-22T06:19:53.528Z,14.80
2018-01-22T06:22:21.181Z,16.80
2018-01-22T06:24:48.706Z,16.57
2018-01-22T06:27:17.026Z,14.30
2018-01-22T06:29:44.565Z,12.10
2018-01-22T06:52:15.470Z,17.80
2018-01-22T06:54:42.997Z,16.30
2018-01-22T06:57:10.530Z,14.63
2018-01-22T06:59:38.856Z,18.47
2018-01-22T07:02:06.385Z,15.67
2018-01-22T07:04:33.929Z,13.50
2018-01-22T07:07:02.217Z,14.17
2018-01-22T07:09:29.766Z,15.60
2018-01-22T07:11:58.057Z,13.33
2018-01-22T07:14:25.613Z,17.07
2018-01-22T07:16:53.898Z,15.53
2018-01-22T07:19:21.452Z,11.10
2018-01-22T07:21:49.739Z,14.50
2018-01-22T07:24:17.294Z,13.50
2018-01-22T07:26:44.821Z,12.70
2018-01-22T07:29:12.366Z,10.60
2018-01-22T07:31:39.892Z,9.87
2018-01-22T07:34:07.446Z,9.37
2018-01-22T07:36:34.973Z,12.00
2018-01-22T07:39:03.298Z,15.20
2018-01-22T07:41:30.826Z,11.20
2018-01-22T07:43:58.378Z,10.73
2018-01-22T07:46:26.657Z,9.93
2018-01-22T07:48:54.966Z,9.07
2018-01-22T07:51:22.499Z,7.33
2018-01-22T07:53:50.041Z,7.50
2018-01-22T07:56:18.334Z,8.60
2018-01-22T07:58:45.877Z,7.60
2018-01-22T08:01:14.173Z,7.37
2018-01-22T08:03:41.697Z,10.83
2018-01-22T08:06:09.253Z,5.83
2018-01-22T08:08:36.784Z,7.80
2018-01-22T08:11:04.321Z,7.00
2018-01-22T08:13:31.849Z,8.20
2018-01-22T08:16:00.166Z,5.37
2018-01-22T08:18:27.694Z,6.47
2018-01-22T08:20:56.010Z,7.10
2018-01-22T08:23:23.534Z,4.47
2018-01-22T08:25:51.845Z,4.63
2018-01-22T08:28:19.361Z,7.60
2018-01-22T08:30:47.683Z,6.47
2018-01-22T08:33:15.209Z,5.23
2018-01-22T08:35:43.517Z,7.00
2018-01-22T08:38:11.025Z,8.80
2018-01-22T08:40:38.561Z,6.23
2018-01-22T08:43:06.077Z,9.60
2018-01-22T08:45:33.630Z,5.77
2018-01-22T08:48:01.917Z,9.33
2018-01-22T08:50:29.470Z,7.40
2018-01-22T08:52:56.990Z,6.33
2018-01-22T08:55:24.546Z,7.20
2018-01-22T08:57:52.070Z,7.17
2018-01-22T09:00:19.602Z,6.10
2018-01-22T09:02:47.917Z,7.07
2018-01-22T09:05:15.438Z,5.80
2018-01-22T09:07:43.749Z,5.50
2018-01-22T09:10:11.269Z,4.53
2018-01-22T09:12:39.587Z,8.87
2018-01-22T09:15:07.114Z,5.30
2018-01-22T09:17:34.661Z,7.00
2018-01-22T09:20:03.001Z,6.53
2018-01-22T09:22:30.541Z,6.10
2018-01-22T09:24:58.057Z,6.23
2018-01-22T09:27:26.375Z,7.80
2018-01-22T09:29:53.893Z,7.37
2018-01-22T09:32:22.211Z,7.30
2018-01-22T09:34:49.728Z,5.57
2018-01-22T09:37:18.047Z,4.90
2018-01-22T09:39:45.675Z,5.43
2018-01-22T09:42:13.985Z,4.80
2018-01-22T09:44:41.510Z,4.30
2018-01-22T09:47:09.826Z,3.90
2018-01-22T09:49:37.347Z,4.20
2018-01-22T09:52:05.659Z,4.47
2018-01-22T09:54:33.182Z,3.50
2018-01-22T09:57:01.505Z,3.70
2018-01-22T09:59:29.077Z,4.30
2018-01-22T10:01:56.581Z,3.90
2018-01-22T10:04:24.894Z,3.93
2018-01-22T10:06:52.418Z,3.23
2018-01-22T10:09:20.734Z,3.87
2018-01-22T10:11:48.254Z,2.83
2018-01-22T10:14:16.566Z,3.43
2018-01-22T10:16:44.086Z,2.63
2018-01-22T10:19:12.394Z,3.90
2018-01-22T10:21:39.915Z,2.93
2018-01-22T10:24:08.230Z,3.30
2018-01-22T10:26:35.745Z,2.93
2018-01-22T10:29:03.294Z,3.63
2018-01-22T10:31:30.812Z,3.70
2018-01-22T10:33:58.357Z,3.17
2018-01-22T10:36:25.891Z,2.90
2018-01-22T10:38:53.442Z,2.97
2018-01-22T10:41:20.973Z,3.03
2018-01-22T10:43:49.289Z,3.60
2018-01-22T10:46:17.590Z,3.13
2018-01-22T10:48:45.138Z,3.00
2018-01-22T10:51:13.426Z,3.20
2018-01-22T10:53:40.978Z,3.20
2018-01-22T10:56:08.506Z,3.50
2018-01-22T10:58:36.058Z,3.50
2018-01-22T11:01:03.584Z,3.07
2018-01-22T11:03:31.139Z,3.10
2018-01-22T11:05:58.663Z,3.53
2018-01-22T11:08:26.959Z,3.30
2018-01-22T11:10:54.510Z,4.37
2018-01-22T11:13:22.797Z,3.50
2018-01-22T11:15:56.129Z,3.77
2018-01-22T11:18:23.658Z,3.30
2018-01-22T11:20:51.213Z,4.60
2018-01-22T11:23:18.738Z,3.60
2018-01-22T11:25:46.287Z,3.67
2018-01-22T11:28:13.824Z,3.97
2018-01-22T11:30:41.374Z,3.70
2018-01-22T11:33:08.894Z,3.77
2018-01-22T11:35:37.210Z,3.87
2018-01-22T11:38:04.737Z,3.67
2018-01-22T11:40:33.059Z,4.33
2018-01-22T11:43:00.582Z,3.90
2018-01-22T11:45:28.138Z,3.77
2018-01-22T11:47:55.673Z,4.33
2018-01-22T11:50:23.236Z,4.10
2018-01-22T11:52:50.797Z,3.93
2018-01-22T11:55:18.325Z,4.20
2018-01-22T11:57:45.866Z,3.47
2018-01-22T12:00:13.422Z,3.80
2018-01-22T12:02:40.940Z,3.90
2018-01-22T12:05:09.258Z,4.20
2018-01-22T12:07:36.781Z,3.73
2018-01-22T12:10:05.080Z,4.00
2018-01-22T12:12:32.625Z,4.20
2018-01-22T12:15:00.914Z,3.27
2018-01-22T12:17:28.463Z,7.73
2018-01-22T12:19:56.026Z,6.13
2018-01-22T12:22:23.574Z,3.30
2018-01-22T12:24:51.871Z,3.00
2018-01-22T12:27:19.438Z,3.00
2018-01-22T12:29:46.969Z,3.00
2018-01-22T12:32:15.285Z,4.23
2018-01-22T12:34:42.805Z,3.73
2018-01-22T12:37:11.114Z,3.80
2018-01-22T12:39:38.639Z,4.00
2018-01-22T12:42:06.970Z,5.63
2018-01-22T12:44:34.498Z,4.77
2018-01-22T12:47:02.054Z,5.17
2018-01-22T12:49:29.595Z,5.10
2018-01-22T12:51:57.913Z,5.13
2018-01-22T12:54:25.439Z,4.50
2018-01-22T12:56:53.766Z,5.03
2018-01-22T12:59:21.291Z,5.00
2018-01-22T13:01:48.837Z,6.20
2018-01-22T13:04:17.126Z,4.63
2018-01-22T13:06:44.677Z,4.80
2018-01-22T13:09:12.965Z,5.27
2018-01-22T13:11:40.494Z,4.67
2018-01-22T13:14:08.046Z,7.43
2018-01-22T13:16:35.576Z,5.47
2018-01-22T13:19:03.134Z,5.47
2018-01-22T13:21:30.662Z,5.43
2018-01-22T13:23:58.216Z,6.37
2018-01-22T13:26:25.751Z,5.33
2018-01-22T13:28:54.066Z,4.73
2018-01-22T13:31:21.587Z,5.37
2018-01-22T13:33:49.136Z,7.17
2018-01-22T13:36:16.663Z,6.07
2018-01-22T13:38:44.202Z,5.77
2018-01-22T13:41:12.515Z,7.23
2018-01-22T13:43:40.061Z,7.20
2018-01-22T13:46:07.590Z,7.83
2018-01-22T13:48:35.142Z,5.90
2018-01-22T13:51:03.430Z,4.90
2018-01-22T13:53:30.978Z,9.83
2018-01-22T13:55:59.273Z,6.00
2018-01-22T13:58:26.818Z,6.27
2018-01-22T14:00:54.354Z,7.40
2018-01-22T14:03:21.902Z,5.77
2018-01-22T14:05:49.426Z,10.30
2018-01-22T14:08:16.986Z,9.23
2018-01-22T14:10:44.515Z,11.03
2018-01-22T14:13:12.054Z,10.60
2018-01-22T14:15:40.379Z,10.80
2018-01-22T14:18:07.905Z,15.03
2018-01-22T14:20:36.223Z,11.13
2018-01-22T14:23:03.753Z,8.93
2018-01-22T14:25:31.309Z,8.77
2018-01-22T14:27:58.851Z,11.40
2018-01-22T14:30:27.172Z,8.97
2018-01-22T14:32:54.698Z,7.70
2018-01-22T14:35:23.011Z,7.07
2018-01-22T14:37:50.538Z,7.53
2018-01-22T14:40:18.849Z,6.00
2018-01-22T14:42:46.378Z,8.17
2018-01-22T14:45:14.697Z,7.13
2018-01-22T14:47:42.222Z,6.83
2018-01-22T14:50:09.777Z,5.07
2018-01-22T14:52:37.309Z,5.13
2018-01-22T14:55:04.849Z,6.40
2018-01-22T14:57:32.376Z,6.30
2018-01-22T14:59:59.933Z,3.93
2018-01-22T15:02:27.449Z,5.10
2018-01-22T15:04:55.008Z,4.30
2018-01-22T15:07:23.301Z,6.93
2018-01-22T15:09:51.618Z,6.57
2018-01-22T15:12:19.140Z,5.73
2018-01-22T15:14:47.453Z,8.30
2018-01-22T15:17:14.974Z,8.70
2018-01-22T15:19:43.270Z,14.13
2018-01-22T15:22:10.832Z,22.90
2018-01-22T15:24:38.369Z,44.63
2018-01-22T15:27:06.694Z,19.70
2018-01-22T15:29:34.225Z,23.43
2018-01-22T15:32:01.786Z,14.93
2018-01-22T15:34:29.310Z,17.37
2018-01-22T15:36:56.870Z,24.03
2018-01-22T15:39:24.395Z,9.10
2018-01-22T15:41:51.946Z,10.67
2018-01-22T15:44:19.475Z,13.40
2018-01-22T15:46:47.786Z,16.13
2018-01-22T15:49:15.312Z,11.00
2018-01-22T15:51:42.866Z,12.27
2018-01-22T15:54:11.172Z,11.60
2018-01-22T15:56:38.734Z,12.50
2018-01-22T15:59:06.258Z,9.97
2018-01-22T16:01:34.577Z,15.30
2018-01-22T16:04:02.100Z,17.13
2018-01-22T16:06:29.666Z,17.23
2018-01-22T16:08:57.197Z,19.20
2018-01-22T16:11:24.775Z,9.93
2018-01-22T16:13:53.074Z,12.70
2018-01-22T16:16:20.603Z,12.17
2018-01-22T16:18:48.925Z,11.90
2018-01-22T16:21:16.450Z,12.87
2018-01-22T16:23:44.765Z,13.80
2018-01-22T16:26:12.310Z,12.83
2018-01-22T16:28:39.861Z,11.03
2018-01-22T16:31:07.389Z,23.27
2018-01-22T16:33:34.940Z,16.53
2018-01-22T16:36:02.465Z,26.53
2018-01-22T16:38:30.017Z,26.20
2018-01-22T16:40:57.542Z,15.60
2018-01-22T16:43:25.861Z,16.60
2018-01-22T16:45:53.381Z,14.57
2018-01-22T16:48:21.702Z,15.73
2018-01-22T16:50:49.230Z,11.40
2018-01-22T16:53:16.786Z,11.23
2018-01-22T16:55:44.318Z,9.47
2018-01-22T16:58:11.874Z,11.60
2018-01-22T17:00:39.421Z,10.67
2018-01-22T17:03:06.973Z,20.13
2018-01-22T17:05:34.515Z,13.80
2018-01-22T17:08:02.091Z,12.60
2018-01-22T17:10:29.613Z,19.57
2018-01-22T17:12:57.170Z,25.30
2018-01-22T17:15:24.698Z,25.07
2018-01-22T17:17:52.226Z,20.60
2018-01-22T17:20:19.786Z,21.40
2018-01-22T17:22:47.318Z,22.93
2018-01-22T17:25:14.866Z,18.50
2018-01-22T17:27:42.393Z,24.90
2018-01-22T17:30:09.955Z,17.73
2018-01-22T17:32:37.483Z,32.57
2018-01-22T17:35:05.030Z,15.00
2018-01-22T17:37:32.550Z,18.10
2018-01-22T17:40:00.866Z,16.27
2018-01-22T17:42:28.399Z,21.23
2018-01-22T17:44:55.947Z,15.60
2018-01-22T17:47:24.237Z,21.07
2018-01-22T17:49:51.799Z,16.93
2018-01-22T17:52:19.326Z,15.90
2018-01-22T17:54:46.876Z,19.03
2018-01-22T17:57:14.408Z,16.30
2018-01-22T17:59:42.002Z,15.90
2018-01-22T18:02:09.530Z,21.33
2018-01-22T18:04:37.077Z,17.60
2018-01-22T18:07:04.602Z,17.87
2018-01-22T18:09:32.991Z,23.80
2018-01-22T18:12:00.522Z,25.30
2018-01-22T18:14:28.082Z,16.80
2018-01-22T18:16:55.610Z,19.20
2018-01-22T18:19:23.135Z,19.40
2018-01-22T18:21:50.686Z,20.10
2018-01-22T18:24:18.210Z,20.50
2018-01-22T18:26:45.758Z,15.43
2018-01-22T18:29:13.277Z,10.63
2018-01-22T18:31:40.830Z,11.67
2018-01-22T18:34:08.366Z,16.27
2018-01-22T18:36:36.685Z,10.73
2018-01-22T18:39:04.205Z,12.53
2018-01-22T18:41:32.522Z,12.07
2018-01-22T18:44:00.058Z,15.70
2018-01-22T18:46:27.610Z,16.00
2018-01-22T18:48:55.919Z,11.93
2018-01-22T18:51:23.476Z,11.70
2018-01-22T18:53:51.006Z,10.20
2018-01-22T18:56:19.329Z,9.73
2018-01-22T18:58:46.854Z,7.93
2018-01-22T19:01:14.399Z,9.97
2018-01-22T19:03:42.689Z,10.20
2018-01-22T19:06:10.402Z,22.77
2018-01-22T19:08:37.962Z,13.97
2018-01-22T19:11:05.584Z,14.73
2018-01-22T19:13:33.113Z,12.20
2018-01-22T19:16:01.434Z,11.03
2018-01-22T19:18:29.010Z,10.80
2018-01-22T19:20:56.759Z,11.17
2018-01-22T19:23:24.349Z,14.53
2018-01-22T19:25:51.878Z,14.40
2018-01-22T19:28:19.698Z,14.93
2018-01-22T19:30:47.861Z,10.83
2018-01-22T19:33:16.200Z,10.57
2018-01-22T19:35:43.734Z,13.97
2018-01-22T19:38:11.286Z,11.70
2018-01-22T19:40:39.581Z,15.43
2018-01-22T19:43:07.834Z,16.97
2018-01-22T19:45:35.421Z,15.77
2018-01-22T19:48:03.016Z,13.43
2018-01-22T19:50:30.957Z,13.60
2018-01-22T19:52:58.540Z,16.27
2018-01-22T19:55:26.079Z,15.87
2018-01-22T19:57:53.627Z,14.13
2018-01-22T20:00:21.154Z,15.93
2018-01-22T20:02:49.472Z,18.70
2018-01-22T20:05:17.011Z,14.30
2018-01-22T20:07:45.261Z,18.23
2018-01-22T20:10:12.822Z,20.47
2018-01-22T20:12:40.362Z,12.73
2018-01-22T20:15:07.891Z,14.17
2018-01-22T20:17:35.441Z,14.30
2018-01-22T20:20:03.730Z,16.07
2018-01-22T20:22:31.274Z,18.03
2018-01-22T20:24:58.805Z,11.70
2018-01-22T20:27:27.127Z,18.03
2018-01-22T20:29:54.650Z,20.00
2018-01-22T20:32:22.966Z,14.47
2018-01-22T20:34:50.493Z,17.00
2018-01-22T20:37:18.783Z,22.87
2018-01-22T20:39:46.344Z,14.83
2018-01-22T20:42:13.870Z,16.33
2018-01-22T20:44:42.194Z,19.10
2018-01-22T20:47:09.717Z,14.67
2018-01-22T20:49:38.038Z,21.90
2018-01-22T20:52:05.706Z,10.57
2018-01-22T20:54:33.269Z,17.07
2018-01-22T20:57:00.799Z,16.10
2018-01-22T20:59:28.374Z,13.67
2018-01-22T21:01:55.897Z,14.50
2018-01-22T21:04:24.226Z,13.37
2018-01-22T21:06:51.765Z,19.07
2018-01-22T21:09:19.319Z,18.07
2018-01-22T21:11:46.885Z,20.83
2018-01-22T21:14:14.461Z,15.50
2018-01-22T21:16:42.015Z,13.70
2018-01-22T21:19:09.564Z,19.17
2018-01-22T21:21:37.101Z,24.13
2018-01-22T21:24:05.410Z,14.80
2018-01-22T21:26:32.951Z,17.27
2018-01-22T21:29:00.554Z,22.37
2018-01-22T21:31:28.110Z,15.57
2018-01-22T21:33:56.514Z,18.30
2018-01-22T21:36:24.107Z,17.40
2018-01-22T21:38:51.638Z,13.23
2018-01-22T21:41:19.189Z,16.83
2018-01-22T21:43:46.721Z,15.37
2018-01-22T21:46:14.286Z,20.10
2018-01-22T21:48:41.820Z,13.30
2018-01-22T21:51:09.368Z,15.70
2018-01-22T21:53:36.899Z,21.43
2018-01-22T21:56:05.228Z,19.73
2018-01-22T21:58:32.764Z,22.53
2018-01-22T22:01:00.326Z,18.27
2018-01-22T22:03:27.860Z,15.53
2018-01-22T22:05:56.194Z,24.23
2018-01-22T22:08:23.721Z,17.07
2018-01-22T22:10:51.278Z,19.90
2018-01-22T22:13:18.810Z,19.70
2018-01-22T22:15:47.174Z,14.20
2018-01-22T22:18:14.704Z,24.10
2018-01-22T22:20:42.257Z,22.50
2018-01-22T22:23:09.779Z,12.40
2018-01-22T22:25:38.070Z,20.50
2018-01-22T22:28:05.636Z,14.60
2018-01-22T22:30:33.159Z,21.30
2018-01-22T22:33:00.706Z,14.63
2018-01-22T22:35:28.240Z,18.30
2018-01-22T22:37:55.798Z,13.20
2018-01-22T22:40:23.322Z,16.30
2018-01-22T22:42:51.695Z,14.73
2018-01-22T22:45:19.986Z,17.47
2018-01-22T22:47:47.545Z,24.83
2018-01-22T22:50:15.071Z,16.10
2018-01-22T22:52:42.617Z,23.40
2018-01-22T22:55:10.149Z,12.90
2018-01-22T22:57:37.702Z,18.30
2018-01-22T23:00:05.283Z,21.20
2018-01-22T23:02:32.830Z,18.70
2018-01-22T23:05:00.401Z,24.23
2018-01-22T23:07:27.962Z,14.30
2018-01-22T23:09:55.491Z,11.53
2018-01-22T23:12:23.038Z,21.03
2018-01-22T23:14:50.578Z,19.13
2018-01-22T23:17:18.899Z,14.87
2018-01-22T23:19:46.451Z,12.57
2018-01-22T23:22:14.009Z,21.43
2018-01-22T23:24:41.543Z,14.43
2018-01-22T23:27:09.863Z,15.33
2018-01-22T23:29:37.517Z,21.53
2018-01-22T23:32:05.050Z,23.33
2018-01-22T23:34:33.493Z,24.10
2018-01-22T23:37:01.045Z,18.67
2018-01-22T23:39:28.590Z,21.73
2018-01-22T23:41:56.117Z,19.03
2018-01-22T23:44:23.666Z,27.80
2018-01-22T23:46:52.026Z,10.97
2018-01-22T23:49:20.722Z,15.27
2018-01-22T23:51:49.011Z,14.43
2018-01-22T23:54:20.163Z,17.90
2018-01-22T23:56:47.689Z,15.97
2018-01-22T23:59:15.283Z,14.73
